createdAt,value
2022-10-06T06:12:31.848Z,100.00
2022-10-06T06:15:54.236Z,100.00
2022-10-06T06:18:23.063Z,100.00
2022-10-06T06:21:12.153Z,100.00
2022-10-06T06:23:51.405Z,100.00
2022-10-06T06:26:27.348Z,100.00
2022-10-06T06:29:05.515Z,100.00
2022-10-06T06:31:52.928Z,100.00
2022-10-06T06:34:25.838Z,100.00
2022-10-06T06:37:14.989Z,100.00
2022-10-06T06:39:43.965Z,100.00
2022-10-06T06:42:19.019Z,100.00
2022-10-06T06:45:24.189Z,100.00
2022-10-06T06:48:35.615Z,100.00
2022-10-06T06:51:18.787Z,100.00
2022-10-06T06:53:52.886Z,100.00
2022-10-06T06:56:27.154Z,100.00
2022-10-06T06:58:58.425Z,100.00
2022-10-06T07:01:30.487Z,100.00
2022-10-06T07:04:00.787Z,100.00
2022-10-06T07:07:01.420Z,100.00
2022-10-06T07:09:46.612Z,100.00
2022-10-06T07:12:23.461Z,100.00
2022-10-06T07:15:31.093Z,100.00
2022-10-06T07:18:18.847Z,100.00
2022-10-06T07:21:08.287Z,100.00
2022-10-06T07:23:58.658Z,100.00
2022-10-06T07:26:31.789Z,100.00
2022-10-06T07:29:13.735Z,100.00
2022-10-06T07:31:47.532Z,100.00
2022-10-06T07:34:38.669Z,100.00
2022-10-06T07:37:12.602Z,100.00
2022-10-06T07:39:49.673Z,100.00
2022-10-06T07:42:27.595Z,100.00
2022-10-06T07:45:16.976Z,100.00
2022-10-06T07:47:51.488Z,100.00
2022-10-06T07:50:28.159Z,100.00
2022-10-06T07:53:05.711Z,100.00
2022-10-06T07:55:56.605Z,100.00
2022-10-06T07:58:36.736Z,100.00
2022-10-06T08:01:29.345Z,100.00
2022-10-06T08:04:08.829Z,100.00
2022-10-06T08:06:48.166Z,100.00
2022-10-06T08:09:17.215Z,100.00
2022-10-06T08:11:50.887Z,100.00
2022-10-06T08:14:29.377Z,100.00
2022-10-06T08:17:01.032Z,100.00
2022-10-06T08:19:47.186Z,100.00
2022-10-06T08:22:21.305Z,100.00
2022-10-06T08:25:08.267Z,100.00
2022-10-06T08:27:44.823Z,100.00
2022-10-06T08:30:18.832Z,100.00
2022-10-06T08:32:48.521Z,100.00
2022-10-06T08:35:29.684Z,100.00
2022-10-06T08:40:53.356Z,100.00
2022-10-06T08:43:26.671Z,100.00
2022-10-06T08:46:15.121Z,100.00
2022-10-06T08:48:46.532Z,100.00
2022-10-06T08:51:49.054Z,100.00
2022-10-06T08:54:46.633Z,100.00
2022-10-06T08:57:30.084Z,100.00
2022-10-06T09:00:19.613Z,100.00
2022-10-06T09:02:53.848Z,100.00
2022-10-06T09:05:31.161Z,100.00
2022-10-06T09:08:41.264Z,100.00
2022-10-06T09:11:28.066Z,100.00
2022-10-06T09:14:10.597Z,100.00
2022-10-06T09:16:45.950Z,100.00
2022-10-06T09:19:34.016Z,100.00
2022-10-06T09:22:08.379Z,100.00
2022-10-06T09:24:48.459Z,100.00
2022-10-06T09:27:45.155Z,100.00
2022-10-06T09:30:17.524Z,100.00
2022-10-06T09:32:51.191Z,100.00
2022-10-06T09:35:28.539Z,100.00
2022-10-06T09:38:09.390Z,100.00
2022-10-06T09:40:51.683Z,100.00
2022-10-06T09:43:35.752Z,100.00
2022-10-06T09:46:43.673Z,100.00
2022-10-06T09:49:23.618Z,100.00
2022-10-06T09:52:27.380Z,100.00
2022-10-06T09:55:18.883Z,100.00
2022-10-06T09:58:00.984Z,100.00
2022-10-06T10:00:38.439Z,100.00
2022-10-06T10:03:23.688Z,100.00
2022-10-06T10:06:02.783Z,100.00
2022-10-06T10:08:39.228Z,100.00
2022-10-06T10:11:43.589Z,100.00
2022-10-06T10:14:31.260Z,100.00
2022-10-06T10:17:08.679Z,100.00
2022-10-06T10:19:48.249Z,100.00
2022-10-06T10:22:42.633Z,100.00
2022-10-06T10:25:37.000Z,100.00
2022-10-06T10:28:56.461Z,100.00
2022-10-06T10:31:45.282Z,100.00
2022-10-06T10:34:38.496Z,100.00
2022-10-06T10:41:01.031Z,100.00
2022-10-06T10:44:04.298Z,100.00
2022-10-06T10:46:45.482Z,100.00
2022-10-06T10:49:33.473Z,100.00
2022-10-06T10:52:27.577Z,100.00
2022-10-06T10:55:40.262Z,100.00
2022-10-06T10:58:49.690Z,100.00
2022-10-06T11:01:57.527Z,100.00
2022-10-06T11:04:30.767Z,100.00
2022-10-06T11:07:30.278Z,100.00
2022-10-06T11:10:25.898Z,100.00
2022-10-06T11:13:15.830Z,100.00
2022-10-06T11:16:02.969Z,100.00
2022-10-06T11:18:54.627Z,100.00
2022-10-06T11:22:00.083Z,100.00
2022-10-06T11:25:20.235Z,100.00
2022-10-06T11:28:40.224Z,100.00
2022-10-06T11:31:23.244Z,100.00
2022-10-06T11:34:05.129Z,79.00
2022-10-06T11:37:13.391Z,68.79
2022-10-06T11:40:47.624Z,85.35
2022-10-06T11:43:33.511Z,100.00
2022-10-06T11:46:31.875Z,100.00
2022-10-06T11:49:39.486Z,100.00
2022-10-06T11:52:24.450Z,100.00
2022-10-06T11:55:11.477Z,100.00
2022-10-06T11:58:41.383Z,100.00
2022-10-06T12:01:48.523Z,100.00
2022-10-06T12:04:25.861Z,100.00
2022-10-06T12:07:00.715Z,100.00
2022-10-06T12:09:52.998Z,100.00
2022-10-06T12:12:36.530Z,100.00
2022-10-06T12:17:08.467Z,92.83
2022-10-06T12:18:35.925Z,75.47
2022-10-06T12:22:07.987Z,64.57
2022-10-06T12:28:33.516Z,59.35
2022-10-06T12:32:00.568Z,57.17
2022-10-06T12:35:18.067Z,60.19
2022-10-06T12:37:56.116Z,53.11
2022-10-06T12:40:54.407Z,50.62
2022-10-06T12:47:09.855Z,59.01
2022-10-06T12:49:53.478Z,64.76
2022-10-06T12:53:08.064Z,71.27
2022-10-06T12:56:06.490Z,65.38
2022-10-06T12:58:35.374Z,64.26
2022-10-06T13:01:31.871Z,60.92
2022-10-06T13:03:59.970Z,54.25
2022-10-06T13:06:35.125Z,59.82
2022-10-06T13:09:10.525Z,60.13
2022-10-06T13:11:47.934Z,65.67
2022-10-06T13:14:24.498Z,63.24
2022-10-06T13:16:52.838Z,77.95
2022-10-06T13:19:28.865Z,85.43
2022-10-06T13:22:10.405Z,94.50
2022-10-06T13:27:44.263Z,77.93
2022-10-06T13:30:27.561Z,90.28
2022-10-06T13:33:03.031Z,79.74
2022-10-06T13:35:41.717Z,84.83
2022-10-06T13:38:11.390Z,85.54
2022-10-06T13:40:46.687Z,82.81
2022-10-06T13:43:22.211Z,79.41
2022-10-06T13:46:00.076Z,78.01
2022-10-06T13:48:35.828Z,85.30
2022-10-06T13:51:13.661Z,86.13
2022-10-06T13:53:57.823Z,84.10
2022-10-06T13:56:49.063Z,100.00
2022-10-06T13:59:43.058Z,100.00
2022-10-06T14:02:39.339Z,100.00
2022-10-06T14:05:56.624Z,73.86
2022-10-06T14:08:28.463Z,67.75
2022-10-06T14:11:01.394Z,54.02
2022-10-06T14:13:42.848Z,49.90
2022-10-06T14:16:23.742Z,53.27
2022-10-06T14:19:07.673Z,51.78
2022-10-06T14:21:46.239Z,48.85
2022-10-06T14:24:37.639Z,55.38
2022-10-06T14:27:10.922Z,63.54
2022-10-06T14:29:41.341Z,67.23
2022-10-06T14:32:16.734Z,66.57
2022-10-06T14:34:49.517Z,68.91
2022-10-06T14:37:19.803Z,81.70
2022-10-06T14:40:03.082Z,74.95
2022-10-06T14:42:37.333Z,83.15
2022-10-06T14:45:16.794Z,79.22
2022-10-06T14:47:48.230Z,91.11
2022-10-06T14:50:18.528Z,89.78
2022-10-06T14:52:50.473Z,100.00
2022-10-06T14:55:32.560Z,99.68
2022-10-06T14:58:05.094Z,100.00
2022-10-06T15:00:34.686Z,95.27
2022-10-06T15:03:06.635Z,100.00
2022-10-06T15:05:59.825Z,100.00
2022-10-06T15:08:39.064Z,100.00
2022-10-06T15:11:10.723Z,100.00
2022-10-06T15:13:42.608Z,100.00
2022-10-06T15:16:14.216Z,100.00
2022-10-06T15:18:45.001Z,100.00
2022-10-06T15:21:26.609Z,100.00
2022-10-06T15:24:06.847Z,100.00
2022-10-06T15:26:56.392Z,100.00
2022-10-06T15:29:42.355Z,100.00
2022-10-06T15:32:17.129Z,99.82
2022-10-06T15:35:03.880Z,100.00
2022-10-06T15:37:35.613Z,100.00
2022-10-06T15:40:08.175Z,100.00
2022-10-06T15:42:51.566Z,100.00
2022-10-06T15:45:23.589Z,100.00
2022-10-06T15:48:08.831Z,100.00
2022-10-06T15:50:47.216Z,100.00
2022-10-06T15:53:19.561Z,100.00
2022-10-06T15:55:52.219Z,100.00
2022-10-06T15:58:23.949Z,100.00
2022-10-06T16:01:01.023Z,100.00
2022-10-06T16:03:43.403Z,100.00
2022-10-06T16:06:19.579Z,100.00
2022-10-06T16:08:57.612Z,100.00
2022-10-06T16:11:33.592Z,100.00
2022-10-06T16:14:08.202Z,100.00
2022-10-06T16:16:58.746Z,100.00
